Time;durP1;ratioP1;P1;durP2;ratioP2;P2;SDS_P1;SDS_P2;PMS_P1;PMS_P2;Temp;Humidity;BMP_temperature;BMP_pressure;BME280_temperature;BME280_humidity;BME280_pressure;Samples;Min_cycle;Max_cycle;Signal;HPM_P1;HPM_P2
2021/08/01 00:01:05;;;;;;;67.65;43.45;;;;;;;;;;5104107;28;20468;-71
2021/08/01 00:03:31;;;;;;;66.30;47.53;;;;;;;;;;5097183;28;20127;-75
2021/08/01 00:05:58;;;;;;;66.22;46.85;;;;;;;;;;5098447;28;20050;-71
2021/08/01 00:08:25;;;;;;;67.68;45.17;;;;;;;;;;5083118;28;20088;-73
2021/08/01 00:10:57;;;;;;;70.95;52.35;;;;;;;;;;5070127;28;20465;-71
2021/08/01 00:13:23;;;;;;;89.72;70.40;;;;;;;;;;5103402;28;20049;-72
2021/08/01 00:15:50;;;;;;;101.60;72.15;;;;;;;;;;5086586;28;20044;-72
2021/08/01 00:18:16;;;;;;;114.82;85.03;;;;;;;;;;5099544;28;20043;-73
2021/08/01 00:20:44;;;;;;;113.47;83.20;;;;;;;;;;5101691;28;20563;-73
2021/08/01 00:23:11;;;;;;;119.13;92.03;;;;;;;;;;5084028;28;20520;-73
2021/08/01 00:25:37;;;;;;;125.03;94.90;;;;;;;;;;5094846;28;20039;-73
2021/08/01 00:28:04;;;;;;;122.57;96.32;;;;;;;;;;5097618;28;20039;-73
2021/08/01 00:31:22;;;;;;;122.20;97.95;;;;;;;;;;5038114;27;20915;-72
2021/08/01 00:33:49;;;;;;;115.65;84.68;;;;;;;;;;5036376;28;20046;-74
2021/08/01 00:36:15;;;;;;;110.10;84.03;;;;;;;;;;5033545;28;20122;-72
2021/08/01 00:38:42;;;;;;;112.57;82.25;;;;;;;;;;5037866;28;20163;-72
2021/08/01 00:41:08;;;;;;;118.90;85.88;;;;;;;;;;5021063;28;25083;-71
2021/08/01 00:43:35;;;;;;;117.35;88.93;;;;;;;;;;4996678;28;20046;-71
2021/08/01 00:46:01;;;;;;;123.82;90.03;;;;;;;;;;4997303;28;20157;-71
2021/08/01 00:48:28;;;;;;;106.55;80.65;;;;;;;;;;4999070;28;20042;-71
2021/08/01 00:50:55;;;;;;;100.80;74.97;;;;;;;;;;4998842;28;20041;-71
2021/08/01 00:53:22;;;;;;;99.68;73.05;;;;;;;;;;4999160;28;20120;-71
2021/08/01 00:55:48;;;;;;;108.50;79.75;;;;;;;;;;4999003;28;20133;-73
2021/08/01 00:58:15;;;;;;;107.07;78.15;;;;;;;;;;4998937;28;20085;-71
2021/08/01 01:01:05;;;;;;;104.60;73.93;;;;;;;;;;5011423;28;20038;-70
2021/08/01 01:03:45;;;;;;;100.75;70.10;;;;;;;;;;4998484;28;20501;-71
2021/08/01 01:06:37;;;;;;;118.82;72.78;;;;;;;;;;5033512;28;20107;-71
2021/08/01 01:09:15;;;;;;;104.25;72.03;;;;;;;;;;5034535;28;20088;-71
2021/08/01 01:11:43;;;;;;;104.63;73.55;;;;;;;;;;5032510;28;20042;-70
2021/08/01 01:14:15;;;;;;;107.47;74.82;;;;;;;;;;5018164;28;20034;-71
2021/08/01 01:16:47;;;;;;;114.53;77.80;;;;;;;;;;5011246;28;20046;-72
2021/08/01 01:19:27;;;;;;;117.20;81.30;;;;;;;;;;5017110;28;20044;-71
2021/08/01 01:22:18;;;;;;;110.78;78.05;;;;;;;;;;5014020;28;20042;-71
2021/08/01 01:24:46;;;;;;;119.97;81.80;;;;;;;;;;4996245;28;133855;-71
2021/08/01 01:27:15;;;;;;;123.95;89.55;;;;;;;;;;5037824;28;20049;-74
2021/08/01 01:29:44;;;;;;;128.25;87.07;;;;;;;;;;5036591;28;20037;-71
2021/08/01 01:32:15;;;;;;;113.15;76.60;;;;;;;;;;5036475;28;20518;-71
2021/08/01 01:34:53;;;;;;;89.30;59.45;;;;;;;;;;5037035;28;20084;-74
2021/08/01 01:37:20;;;;;;;79.22;51.70;;;;;;;;;;5036994;28;20068;-71
2021/08/01 01:39:48;;;;;;;73.55;51.30;;;;;;;;;;5037990;28;20059;-74
2021/08/01 01:42:17;;;;;;;82.05;50.22;;;;;;;;;;5023835;28;20049;-69
2021/08/01 01:44:45;;;;;;;91.35;58.03;;;;;;;;;;4992951;28;98083;-71
2021/08/01 01:47:14;;;;;;;92.50;60.50;;;;;;;;;;5030768;28;20104;-75
2021/08/01 01:49:43;;;;;;;84.85;58.75;;;;;;;;;;5024861;28;20133;-72
2021/08/01 01:52:11;;;;;;;;;;;;;;;;;;5019218;28;20052;-71
2021/08/01 01:54:38;;;;;;;79.25;51.58;;;;;;;;;;5023847;28;20394;-72
2021/08/01 01:57:08;;;;;;;76.28;49.50;;;;;;;;;;5021671;28;20083;-71
2021/08/01 01:59:36;;;;;;;71.68;46.55;;;;;;;;;;4967151;28;156307;-72
2021/08/01 02:02:08;;;;;;;70.20;45.88;;;;;;;;;;5023732;28;20048;-71
2021/08/01 02:04:36;;;;;;;62.97;42.00;;;;;;;;;;5025024;28;20042;-74
2021/08/01 02:07:04;;;;;;;61.58;41.55;;;;;;;;;;5021391;28;20056;-70
2021/08/01 02:09:59;;;;;;;66.18;44.45;;;;;;;;;;5020285;28;20040;-70
2021/08/01 02:12:38;;;;;;;72.80;48.78;;;;;;;;;;5022181;28;20034;-71
2021/08/01 02:15:12;;;;;;;67.03;44.33;;;;;;;;;;5022377;28;20064;-71
2021/08/01 02:18:14;;;;;;;68.68;44.65;;;;;;;;;;5024771;28;20384;-71
2021/08/01 02:20:42;;;;;;;66.22;44.47;;;;;;;;;;5022907;28;20044;-71
2021/08/01 02:23:12;;;;;;;74.38;49.72;;;;;;;;;;5023944;28;20484;-71
2021/08/01 02:25:42;;;;;;;69.10;46.65;;;;;;;;;;5023407;28;20064;-73
2021/08/01 02:28:08;;;;;;;69.38;46.08;;;;;;;;;;5021589;28;20053;-71
2021/08/01 02:30:37;;;;;;;74.72;50.25;;;;;;;;;;5022019;28;20051;-72
2021/08/01 02:33:05;;;;;;;;;;;;;;;;;;5025134;28;20124;-71
2021/08/01 02:35:32;;;;;;;67.07;42.92;;;;;;;;;;5022507;28;20367;-74
2021/08/01 02:38:01;;;;;;;51.20;31.67;;;;;;;;;;5023483;28;20095;-71
2021/08/01 02:40:36;;;;;;;41.83;27.10;;;;;;;;;;5023978;28;20038;-71
2021/08/01 02:43:06;;;;;;;41.63;24.92;;;;;;;;;;5022633;28;20033;-71
2021/08/01 02:45:34;;;;;;;55.25;35.45;;;;;;;;;;5023327;28;20046;-74
2021/08/01 02:48:03;;;;;;;48.53;32.40;;;;;;;;;;5021259;28;20113;-71
2021/08/01 02:50:31;;;;;;;51.00;35.28;;;;;;;;;;5035937;28;20037;-71
2021/08/01 02:53:04;;;;;;;54.92;33.15;;;;;;;;;;5020799;28;20041;-71
2021/08/01 02:55:32;;;;;;;46.00;30.85;;;;;;;;;;5022278;28;20123;-71
2021/08/01 02:58:02;;;;;;;54.50;33.70;;;;;;;;;;5021487;28;20060;-71
2021/08/01 03:00:32;;;;;;;49.40;31.88;;;;;;;;;;5022978;28;20045;-72
2021/08/01 03:03:00;;;;;;;52.10;31.63;;;;;;;;;;5022292;28;20037;-71
2021/08/01 03:05:27;;;;;;;46.70;32.15;;;;;;;;;;5022084;28;20057;-74
2021/08/01 03:07:54;;;;;;;45.38;31.75;;;;;;;;;;5023372;28;20045;-71
2021/08/01 03:10:20;;;;;;;47.53;30.63;;;;;;;;;;5022734;28;20048;-71
2021/08/01 03:12:51;;;;;;;51.05;31.70;;;;;;;;;;5021350;28;20075;-71
2021/08/01 03:15:18;;;;;;;56.40;35.78;;;;;;;;;;5026269;28;20091;-75
2021/08/01 03:17:45;;;;;;;51.22;34.53;;;;;;;;;;5016276;28;20037;-72
2021/08/01 03:20:12;;;;;;;59.22;34.13;;;;;;;;;;5034639;28;20042;-71
2021/08/01 03:22:39;;;;;;;52.08;36.70;;;;;;;;;;5022831;28;20052;-70
2021/08/01 03:25:05;;;;;;;75.78;43.22;;;;;;;;;;5021349;28;20116;-71
2021/08/01 03:27:32;;;;;;;76.18;47.63;;;;;;;;;;5024424;28;20080;-72
2021/08/01 03:29:58;;;;;;;121.70;75.75;;;;;;;;;;5022387;28;20582;-71
2021/08/01 03:32:25;;;;;;;156.25;95.55;;;;;;;;;;5023732;28;20522;-72
2021/08/01 03:34:52;;;;;;;191.68;109.13;;;;;;;;;;5023280;28;20050;-71
2021/08/01 03:37:18;;;;;;;213.75;122.18;;;;;;;;;;5024025;28;20053;-71
2021/08/01 03:39:45;;;;;;;218.43;124.97;;;;;;;;;;5022848;28;20060;-71
2021/08/01 03:42:11;;;;;;;220.75;126.35;;;;;;;;;;5029098;28;20040;-71
2021/08/01 03:44:38;;;;;;;208.18;123.00;;;;;;;;;;5019550;28;20045;-71
2021/08/01 03:47:04;;;;;;;215.20;123.95;;;;;;;;;;5022262;28;20455;-71
2021/08/01 03:49:31;;;;;;;211.25;122.00;;;;;;;;;;5023068;28;20067;-75
2021/08/01 03:51:58;;;;;;;215.45;125.22;;;;;;;;;;5023521;28;20041;-71
2021/08/01 03:54:24;;;;;;;199.85;121.32;;;;;;;;;;5023001;28;20037;-72
2021/08/01 03:56:51;;;;;;;203.60;122.10;;;;;;;;;;5023752;28;20403;-71
2021/08/01 03:59:17;;;;;;;196.15;115.38;;;;;;;;;;5020596;28;20049;-73
2021/08/01 04:01:44;;;;;;;192.75;113.65;;;;;;;;;;5038716;28;20052;-72
2021/08/01 04:04:10;;;;;;;183.65;109.13;;;;;;;;;;5022234;28;20072;-72
2021/08/01 04:06:37;;;;;;;178.38;106.47;;;;;;;;;;5023687;28;20041;-72
2021/08/01 04:09:05;;;;;;;173.60;105.50;;;;;;;;;;5023456;28;20064;-71
2021/08/01 04:11:32;;;;;;;170.60;103.97;;;;;;;;;;5023275;28;20095;-72
2021/08/01 04:13:59;;;;;;;172.50;103.15;;;;;;;;;;5022193;28;20519;-74
2021/08/01 04:16:26;;;;;;;166.48;107.85;;;;;;;;;;5022950;28;20423;-71
2021/08/01 04:18:52;;;;;;;180.38;108.10;;;;;;;;;;5023890;28;22089;-71
2021/08/01 04:21:19;;;;;;;172.43;107.15;;;;;;;;;;5022887;28;20043;-70
2021/08/01 04:23:45;;;;;;;184.23;116.57;;;;;;;;;;5021425;28;20072;-71
2021/08/01 04:26:12;;;;;;;176.45;106.97;;;;;;;;;;5021045;28;20067;-70
2021/08/01 04:28:39;;;;;;;170.98;106.63;;;;;;;;;;5023105;28;20113;-71
2021/08/01 04:31:05;;;;;;;183.43;110.15;;;;;;;;;;5022927;28;20045;-70
2021/08/01 04:33:32;;;;;;;177.23;106.40;;;;;;;;;;5022295;28;20051;-71
2021/08/01 04:35:59;;;;;;;147.30;89.60;;;;;;;;;;5021192;28;20080;-74
2021/08/01 04:38:25;;;;;;;139.25;84.13;;;;;;;;;;5022163;28;20049;-72
2021/08/01 04:40:52;;;;;;;138.30;82.20;;;;;;;;;;5023426;28;20037;-71
2021/08/01 04:43:18;;;;;;;126.45;77.95;;;;;;;;;;5022847;28;20168;-70
2021/08/01 04:45:45;;;;;;;125.88;75.90;;;;;;;;;;5023549;28;20033;-71
2021/08/01 04:48:11;;;;;;;117.38;75.13;;;;;;;;;;5023004;28;20516;-71
2021/08/01 04:50:38;;;;;;;118.32;74.03;;;;;;;;;;5023421;28;20511;-71
2021/08/01 04:53:04;;;;;;;124.90;76.07;;;;;;;;;;5021594;28;20107;-71
2021/08/01 04:55:31;;;;;;;117.38;73.53;;;;;;;;;;5023351;28;20107;-71
2021/08/01 04:57:57;;;;;;;127.13;79.90;;;;;;;;;;5023035;28;20745;-71
2021/08/01 05:00:24;;;;;;;113.80;73.03;;;;;;;;;;5021465;28;20044;-71
2021/08/01 05:02:50;;;;;;;121.63;76.50;;;;;;;;;;5022823;28;20069;-75
2021/08/01 05:05:17;;;;;;;113.60;75.38;;;;;;;;;;5023494;28;20115;-71
2021/08/01 05:07:43;;;;;;;113.82;76.78;;;;;;;;;;5020881;28;20073;-74
2021/08/01 05:10:10;;;;;;;107.88;71.25;;;;;;;;;;5023064;28;20491;-71
2021/08/01 05:12:37;;;;;;;98.03;68.15;;;;;;;;;;5022926;28;20037;-72
2021/08/01 05:15:07;;;;;;;98.10;67.63;;;;;;;;;;5023546;28;20090;-71
2021/08/01 05:17:34;;;;;;;98.85;68.28;;;;;;;;;;5023579;28;20041;-72
2021/08/01 05:20:00;;;;;;;99.45;68.57;;;;;;;;;;5026614;28;20037;-71
2021/08/01 05:22:27;;;;;;;87.47;55.67;;;;;;;;;;5025155;28;20041;-71
2021/08/01 05:24:53;;;;;;;90.78;57.47;;;;;;;;;;5025357;28;20044;-71
2021/08/01 05:27:20;;;;;;;79.63;54.78;;;;;;;;;;5026257;28;20037;-71
2021/08/01 05:29:46;;;;;;;75.53;47.00;;;;;;;;;;5026546;28;21553;-71
2021/08/01 05:32:13;;;;;;;73.88;48.33;;;;;;;;;;5026605;28;20041;-71
2021/08/01 05:34:39;;;;;;;72.63;44.20;;;;;;;;;;5026181;28;20079;-74
2021/08/01 05:37:06;;;;;;;76.18;46.53;;;;;;;;;;5024763;28;20427;-71
2021/08/01 05:39:36;;;;;;;67.75;44.63;;;;;;;;;;5025550;28;20053;-73
2021/08/01 05:42:03;;;;;;;77.85;50.92;;;;;;;;;;5026595;28;20103;-71
2021/08/01 05:44:32;;;;;;;85.78;55.75;;;;;;;;;;5024363;28;20393;-72
2021/08/01 05:46:58;;;;;;;77.65;51.13;;;;;;;;;;5024473;28;20480;-72
2021/08/01 05:49:25;;;;;;;78.80;50.05;;;;;;;;;;5026355;28;20125;-71
2021/08/01 05:51:51;;;;;;;73.60;50.17;;;;;;;;;;5026124;28;20034;-70
2021/08/01 05:54:18;;;;;;;78.45;49.42;;;;;;;;;;5026358;28;20042;-71
2021/08/01 05:56:44;;;;;;;73.63;48.65;;;;;;;;;;5025665;28;20033;-71
2021/08/01 05:59:11;;;;;;;79.05;51.00;;;;;;;;;;5025808;28;20045;-71
2021/08/01 06:01:37;;;;;;;73.50;49.78;;;;;;;;;;5026163;28;20084;-71
2021/08/01 06:04:04;;;;;;;80.95;50.00;;;;;;;;;;5026145;28;20056;-72
2021/08/01 06:06:30;;;;;;;72.28;48.97;;;;;;;;;;5025654;28;20103;-71
2021/08/01 06:08:57;;;;;;;73.07;49.22;;;;;;;;;;5025029;28;20060;-75
2021/08/01 06:11:23;;;;;;;75.32;49.38;;;;;;;;;;5025171;28;20050;-71
2021/08/01 06:13:50;;;;;;;76.47;50.60;;;;;;;;;;5025857;28;20597;-72
2021/08/01 06:16:17;;;;;;;77.60;52.20;;;;;;;;;;5025259;28;20128;-72
2021/08/01 06:18:44;;;;;;;74.47;45.60;;;;;;;;;;5025721;28;20045;-72
2021/08/01 06:21:19;;;;;;;67.10;43.53;;;;;;;;;;5025894;28;20041;-71
2021/08/01 06:23:54;;;;;;;67.65;43.72;;;;;;;;;;5023680;28;20048;-71
2021/08/01 06:26:22;;;;;;;65.05;41.00;;;;;;;;;;5024993;28;20511;-71
2021/08/01 06:28:50;;;;;;;71.95;42.97;;;;;;;;;;5024080;28;20045;-71
2021/08/01 06:31:17;;;;;;;67.05;42.22;;;;;;;;;;5025414;28;20492;-75
2021/08/01 06:33:44;;;;;;;66.60;40.65;;;;;;;;;;5024687;28;20034;-71
2021/08/01 06:36:15;;;;;;;59.22;38.65;;;;;;;;;;5024774;28;20034;-72
2021/08/01 06:38:44;;;;;;;67.45;40.10;;;;;;;;;;5025028;28;20523;-73
2021/08/01 06:41:11;;;;;;;68.20;41.72;;;;;;;;;;5025295;28;20490;-71
2021/08/01 06:43:38;;;;;;;70.63;43.33;;;;;;;;;;5024764;28;20049;-71
2021/08/01 06:46:04;;;;;;;73.55;45.92;;;;;;;;;;5023541;28;20057;-73
2021/08/01 06:49:03;;;;;;;66.28;40.65;;;;;;;;;;5023571;28;20044;-75
2021/08/01 06:51:30;;;;;;;62.15;40.42;;;;;;;;;;4971104;28;20073;-71
2021/08/01 06:56:49;;;;;;;61.47;37.90;;;;;;;;;;4963808;28;20090;-72
2021/08/01 06:59:16;;;;;;;62.95;40.10;;;;;;;;;;5015710;28;20065;-71
2021/08/01 07:01:42;;;;;;;62.67;40.25;;;;;;;;;;5020585;28;20068;-71
2021/08/01 07:05:02;;;;;;;61.97;40.40;;;;;;;;;;5015571;28;20041;-73
2021/08/01 07:07:29;;;;;;;67.25;41.03;;;;;;;;;;4952589;28;20445;-71
2021/08/01 07:10:07;;;;;;;81.72;49.80;;;;;;;;;;4937809;28;20114;-72
2021/08/01 07:12:49;;;;;;;78.60;48.95;;;;;;;;;;4934551;28;20441;-72
2021/08/01 07:15:45;;;;;;;61.30;41.85;;;;;;;;;;4899499;29;20209;-72
2021/08/01 07:18:15;;;;;;;70.72;43.17;;;;;;;;;;4912099;29;20126;-71
2021/08/01 07:20:50;;;;;;;80.82;52.15;;;;;;;;;;4893166;29;20044;-72
2021/08/01 07:23:17;;;;;;;75.32;48.83;;;;;;;;;;4908108;29;20474;-72
2021/08/01 07:25:43;;;;;;;77.63;48.85;;;;;;;;;;4913779;29;20495;-71
2021/08/01 07:28:16;;;;;;;76.97;49.38;;;;;;;;;;4913946;29;20052;-72
2021/08/01 07:31:27;;;;;;;72.13;49.50;;;;;;;;;;4931102;28;20209;-72
2021/08/01 07:34:08;;;;;;;85.10;52.80;;;;;;;;;;4885656;29;20418;-72
2021/08/01 07:39:38;;;;;;;83.68;52.33;;;;;;;;;;4844096;29;19942;-71
2021/08/01 07:42:05;;;;;;;83.68;52.42;;;;;;;;;;4888642;29;20690;-72
2021/08/01 07:44:36;;;;;;;83.65;55.10;;;;;;;;;;4941233;28;20042;-71
2021/08/01 07:47:02;;;;;;;97.80;61.50;;;;;;;;;;4981690;28;20060;-71
2021/08/01 07:49:29;;;;;;;101.30;61.35;;;;;;;;;;4981802;28;20691;-74
2021/08/01 07:51:55;;;;;;;106.00;64.53;;;;;;;;;;4988878;28;20049;-71
2021/08/01 07:54:22;;;;;;;107.00;66.03;;;;;;;;;;5021527;28;20045;-73
2021/08/01 07:56:48;;;;;;;105.55;65.53;;;;;;;;;;5023292;28;20044;-70
2021/08/01 07:59:15;;;;;;;112.95;68.10;;;;;;;;;;5023323;28;20038;-72
2021/08/01 08:01:41;;;;;;;120.50;71.13;;;;;;;;;;5023873;28;20500;-71
2021/08/01 08:04:08;;;;;;;127.03;74.57;;;;;;;;;;5023257;28;20041;-71
2021/08/01 08:06:35;;;;;;;132.32;77.38;;;;;;;;;;5022667;28;20385;-71
2021/08/01 08:09:02;;;;;;;127.85;76.15;;;;;;;;;;5023405;28;20392;-71
2021/08/01 08:11:29;;;;;;;126.97;79.72;;;;;;;;;;5022875;28;20385;-71
2021/08/01 08:13:55;;;;;;;118.88;73.00;;;;;;;;;;5023905;28;20134;-71
2021/08/01 08:16:22;;;;;;;118.50;68.18;;;;;;;;;;5023207;28;20044;-72
2021/08/01 08:18:50;;;;;;;110.35;67.03;;;;;;;;;;5023443;28;20045;-71
2021/08/01 08:21:17;;;;;;;110.45;66.57;;;;;;;;;;5023359;28;20041;-71
2021/08/01 08:23:44;;;;;;;115.22;67.25;;;;;;;;;;5022790;28;20041;-72
2021/08/01 08:26:11;;;;;;;108.45;68.07;;;;;;;;;;5022019;28;20045;-75
2021/08/01 08:28:37;;;;;;;108.70;63.97;;;;;;;;;;5022750;28;20041;-71
2021/08/01 08:31:04;;;;;;;107.97;62.95;;;;;;;;;;5022867;28;20042;-72
2021/08/01 08:33:30;;;;;;;100.78;62.95;;;;;;;;;;5022708;28;20496;-71
2021/08/01 08:35:57;;;;;;;104.63;62.00;;;;;;;;;;5023483;28;20034;-72
2021/08/01 08:38:23;;;;;;;102.28;64.32;;;;;;;;;;5022568;28;20037;-71
2021/08/01 08:40:51;;;;;;;100.20;62.17;;;;;;;;;;5023497;28;21004;-71
2021/08/01 08:43:18;;;;;;;100.63;59.72;;;;;;;;;;5021035;28;20044;-71
2021/08/01 08:45:45;;;;;;;99.57;57.80;;;;;;;;;;5023378;28;20506;-71
2021/08/01 08:48:13;;;;;;;96.25;59.95;;;;;;;;;;5023525;28;20050;-71
2021/08/01 08:50:41;;;;;;;99.45;60.85;;;;;;;;;;5022908;28;20107;-72
2021/08/01 08:53:08;;;;;;;104.00;61.20;;;;;;;;;;5027554;28;20042;-70
2021/08/01 08:55:35;;;;;;;101.05;62.97;;;;;;;;;;5026134;28;20040;-70
2021/08/01 08:58:03;;;;;;;90.88;56.13;;;;;;;;;;5027585;28;20440;-72
2021/08/01 09:00:31;;;;;;;89.28;56.33;;;;;;;;;;5026361;28;20037;-70
2021/08/01 09:02:58;;;;;;;86.32;55.83;;;;;;;;;;5027199;28;20045;-71
2021/08/01 09:05:25;;;;;;;89.47;61.25;;;;;;;;;;5027472;28;20384;-73
2021/08/01 09:07:52;;;;;;;87.40;54.75;;;;;;;;;;5027111;28;20037;-71
2021/08/01 09:10:19;;;;;;;91.40;54.17;;;;;;;;;;5025486;28;20431;-71
2021/08/01 09:12:48;;;;;;;91.43;56.22;;;;;;;;;;5027539;28;20041;-70
2021/08/01 09:15:27;;;;;;;86.15;55.35;;;;;;;;;;5027244;28;20037;-72
2021/08/01 09:17:55;;;;;;;81.40;52.97;;;;;;;;;;5026516;28;20152;-71
2021/08/01 09:20:26;;;;;;;89.00;54.72;;;;;;;;;;5026816;28;20038;-70
2021/08/01 09:23:01;;;;;;;92.85;57.22;;;;;;;;;;5027012;28;20061;-72
2021/08/01 09:25:42;;;;;;;88.85;55.72;;;;;;;;;;5027429;28;20125;-74
2021/08/01 09:28:11;;;;;;;87.05;53.15;;;;;;;;;;5027024;28;20054;-72
2021/08/01 09:30:44;;;;;;;87.18;52.83;;;;;;;;;;5026613;28;20498;-71
2021/08/01 09:33:11;;;;;;;84.57;52.28;;;;;;;;;;5027127;28;20045;-71
2021/08/01 09:35:39;;;;;;;87.50;56.13;;;;;;;;;;5026485;28;20459;-73
2021/08/01 09:38:06;;;;;;;87.82;55.55;;;;;;;;;;5026493;28;20392;-72
2021/08/01 09:40:34;;;;;;;84.18;52.60;;;;;;;;;;5026595;28;20061;-71
2021/08/01 09:43:15;;;;;;;87.80;53.05;;;;;;;;;;5026088;28;20108;-73
2021/08/01 09:45:41;;;;;;;83.47;50.45;;;;;;;;;;5026092;28;20121;-70
2021/08/01 09:48:16;;;;;;;76.78;47.35;;;;;;;;;;5026213;28;20048;-73
2021/08/01 09:50:59;;;;;;;78.03;48.63;;;;;;;;;;5025794;28;20396;-71
2021/08/01 09:53:26;;;;;;;75.13;43.65;;;;;;;;;;5026507;28;20038;-71
2021/08/01 09:56:12;;;;;;;72.13;45.33;;;;;;;;;;5026127;28;20116;-72
2021/08/01 09:58:39;;;;;;;67.20;43.13;;;;;;;;;;5026048;28;20403;-71
2021/08/01 10:01:06;;;;;;;60.90;39.72;;;;;;;;;;5024212;28;20054;-72
2021/08/01 10:03:43;;;;;;;65.03;40.55;;;;;;;;;;5026235;28;20061;-71
2021/08/01 10:06:20;;;;;;;68.00;43.20;;;;;;;;;;5026537;28;20076;-71
2021/08/01 10:08:53;;;;;;;68.72;40.22;;;;;;;;;;5025987;28;20045;-72
2021/08/01 10:11:21;;;;;;;66.00;39.65;;;;;;;;;;5026551;28;20054;-71
2021/08/01 10:13:51;;;;;;;64.70;40.60;;;;;;;;;;5025694;28;20045;-71
2021/08/01 10:16:18;;;;;;;62.88;38.60;;;;;;;;;;5025759;28;20049;-74
2021/08/01 10:18:46;;;;;;;56.53;37.65;;;;;;;;;;5025985;28;20048;-71
2021/08/01 10:21:16;;;;;;;58.63;40.70;;;;;;;;;;5023441;28;20096;-72
2021/08/01 10:23:47;;;;;;;60.75;38.97;;;;;;;;;;5023908;28;20037;-72
2021/08/01 10:26:17;;;;;;;63.47;39.28;;;;;;;;;;5024147;28;20500;-71
2021/08/01 10:28:54;;;;;;;63.33;42.28;;;;;;;;;;5025911;28;20050;-71
2021/08/01 10:31:32;;;;;;;60.63;38.85;;;;;;;;;;5025865;28;20500;-72
2021/08/01 10:34:10;;;;;;;53.17;33.78;;;;;;;;;;5023885;28;20120;-72
2021/08/01 10:36:38;;;;;;;49.20;33.08;;;;;;;;;;5024782;28;20045;-72
2021/08/01 10:39:12;;;;;;;50.10;29.85;;;;;;;;;;5024706;28;20048;-72
2021/08/01 10:41:40;;;;;;;51.92;31.17;;;;;;;;;;5023587;28;20434;-71
2021/08/01 10:44:12;;;;;;;48.45;31.83;;;;;;;;;;5023589;28;20041;-71
2021/08/01 10:46:41;;;;;;;54.42;34.70;;;;;;;;;;5025284;28;20056;-71
2021/08/01 10:49:09;;;;;;;55.58;35.85;;;;;;;;;;5025086;28;20049;-72
2021/08/01 10:51:37;;;;;;;57.20;36.40;;;;;;;;;;5023837;28;20065;-70
2021/08/01 10:54:30;;;;;;;59.67;37.65;;;;;;;;;;5024671;28;20041;-71
2021/08/01 10:57:13;;;;;;;;;;;;;;;;;;5017481;28;20400;-71
2021/08/01 10:59:46;;;;;;;55.08;34.90;;;;;;;;;;5039529;28;19917;-71
2021/08/01 11:02:19;;;;;;;51.30;33.58;;;;;;;;;;5023941;28;20167;-70
2021/08/01 11:04:47;;;;;;;53.85;33.85;;;;;;;;;;5024559;28;20054;-71
2021/08/01 11:07:29;;;;;;;50.97;34.15;;;;;;;;;;5022205;28;20052;-70
2021/08/01 11:10:08;;;;;;;57.22;34.90;;;;;;;;;;5024420;28;20443;-70
2021/08/01 11:12:38;;;;;;;67.97;39.13;;;;;;;;;;5024377;28;20577;-71
2021/08/01 11:15:16;;;;;;;71.43;42.25;;;;;;;;;;5020123;28;20046;-74
2021/08/01 11:17:51;;;;;;;73.28;43.70;;;;;;;;;;5002923;28;20065;-70
2021/08/01 11:20:23;;;;;;;67.38;40.50;;;;;;;;;;4989061;28;20057;-74
2021/08/01 11:22:51;;;;;;;68.63;43.15;;;;;;;;;;5021442;28;20459;-74
2021/08/01 11:25:28;;;;;;;63.92;38.08;;;;;;;;;;5023661;28;20468;-69
2021/08/01 11:28:10;;;;;;;57.63;38.60;;;;;;;;;;5021903;28;20042;-74
2021/08/01 11:33:30;;;;;;;62.28;38.88;;;;;;;;;;5022431;28;20520;-69
2021/08/01 11:36:18;;;;;;;61.95;36.92;;;;;;;;;;5022426;28;20052;-70
2021/08/01 11:38:52;;;;;;;60.25;39.67;;;;;;;;;;5021042;28;20417;-71
2021/08/01 11:41:34;;;;;;;60.72;36.90;;;;;;;;;;5020697;28;20057;-71
2021/08/01 11:44:07;;;;;;;60.60;36.42;;;;;;;;;;5014698;28;20123;-71
2021/08/01 11:46:59;;;;;;;84.35;52.58;;;;;;;;;;5025363;28;20056;-70
2021/08/01 11:49:48;;;;;;;81.45;50.72;;;;;;;;;;5021363;28;20981;-73
2021/08/01 11:52:34;;;;;;;73.00;46.97;;;;;;;;;;5022957;28;20479;-74
2021/08/01 11:55:01;;;;;;;63.50;43.25;;;;;;;;;;5021392;28;20076;-71
2021/08/01 11:57:29;;;;;;;74.38;46.58;;;;;;;;;;5022855;28;20124;-74
2021/08/01 11:59:56;;;;;;;73.00;42.25;;;;;;;;;;5022731;28;20040;-70
2021/08/01 12:02:23;;;;;;;69.70;41.63;;;;;;;;;;5022618;28;20072;-72
2021/08/01 12:04:57;;;;;;;73.78;44.40;;;;;;;;;;4999795;28;20484;-72
2021/08/01 12:07:41;;;;;;;71.72;45.55;;;;;;;;;;5020757;28;20041;-71
2021/08/01 12:10:18;;;;;;;60.42;37.20;;;;;;;;;;5022760;28;20572;-71
2021/08/01 12:12:45;;;;;;;58.78;33.97;;;;;;;;;;5013178;28;20407;-71
2021/08/01 12:15:11;;;;;;;36.17;24.20;;;;;;;;;;5021238;28;20049;-71
2021/08/01 12:17:41;;;;;;;42.17;28.05;;;;;;;;;;5023136;28;20041;-71
2021/08/01 12:20:08;;;;;;;38.20;25.67;;;;;;;;;;5022840;28;20056;-76
2021/08/01 12:22:35;;;;;;;40.83;26.88;;;;;;;;;;5023353;28;20053;-71
2021/08/01 12:25:07;;;;;;;41.47;28.23;;;;;;;;;;5022575;28;20044;-71
2021/08/01 12:27:35;;;;;;;40.30;28.67;;;;;;;;;;5023150;28;20052;-71
2021/08/01 12:30:04;;;;;;;40.38;27.45;;;;;;;;;;5019273;28;20099;-72
2021/08/01 12:32:33;;;;;;;38.83;26.17;;;;;;;;;;5029099;28;20068;-72
2021/08/01 12:35:20;;;;;;;35.88;23.45;;;;;;;;;;5028409;28;20041;-71
2021/08/01 12:38:02;;;;;;;35.30;24.02;;;;;;;;;;5034868;28;20048;-70
2021/08/01 12:40:36;;;;;;;34.42;23.75;;;;;;;;;;5022630;28;20120;-71
2021/08/01 12:43:09;;;;;;;38.67;24.10;;;;;;;;;;5022276;28;20049;-75
2021/08/01 12:45:40;;;;;;;34.65;22.08;;;;;;;;;;5022262;28;20077;-72
2021/08/01 12:48:29;;;;;;;34.80;23.23;;;;;;;;;;5022551;28;20041;-71
2021/08/01 12:50:59;;;;;;;32.72;23.05;;;;;;;;;;5025209;28;20069;-75
2021/08/01 12:53:27;;;;;;;33.17;22.67;;;;;;;;;;5022501;28;20038;-71
2021/08/01 12:55:59;;;;;;;;;;;;;;;;;;5021201;28;20104;-72
2021/08/01 12:58:33;;;;;;;36.00;22.30;;;;;;;;;;5028549;28;19943;-75
2021/08/01 13:01:04;;;;;;;41.22;24.63;;;;;;;;;;5027975;28;20045;-70
2021/08/01 13:03:43;;;;;;;41.63;28.33;;;;;;;;;;5020982;28;20091;-71
2021/08/01 13:06:12;;;;;;;46.03;29.60;;;;;;;;;;5021676;28;20473;-70
2021/08/01 13:08:41;;;;;;;37.30;24.20;;;;;;;;;;5021285;28;20037;-76
2021/08/01 13:11:11;;;;;;;35.47;23.30;;;;;;;;;;5020745;28;20050;-70
2021/08/01 13:13:52;;;;;;;33.70;22.13;;;;;;;;;;5005600;28;20046;-71
2021/08/01 13:16:19;;;;;;;32.60;22.55;;;;;;;;;;5001884;28;20049;-70
2021/08/01 13:18:45;;;;;;;36.70;23.65;;;;;;;;;;5002336;28;20058;-73
2021/08/01 13:21:22;;;;;;;35.10;22.85;;;;;;;;;;5003162;28;20054;-71
2021/08/01 13:23:52;;;;;;;37.63;22.88;;;;;;;;;;5003000;28;20172;-70
2021/08/01 13:26:32;;;;;;;35.80;23.67;;;;;;;;;;5002520;28;20042;-70
2021/08/01 13:29:01;;;;;;;32.83;22.02;;;;;;;;;;5002813;28;20054;-71
2021/08/01 13:31:41;;;;;;;30.88;21.58;;;;;;;;;;5017047;28;20050;-71
2021/08/01 13:34:20;;;;;;;36.03;23.45;;;;;;;;;;5001040;28;20514;-72
2021/08/01 13:37:01;;;;;;;33.00;20.92;;;;;;;;;;5011008;28;20050;-72
2021/08/01 13:39:48;;;;;;;27.65;20.05;;;;;;;;;;5021458;28;20179;-71
2021/08/01 13:42:38;;;;;;;30.40;20.55;;;;;;;;;;5002373;28;20080;-71
2021/08/01 13:45:11;;;;;;;37.88;22.45;;;;;;;;;;4998178;28;20073;-74
2021/08/01 13:47:41;;;;;;;35.33;22.95;;;;;;;;;;5004670;28;20416;-71
2021/08/01 13:50:14;;;;;;;36.33;22.63;;;;;;;;;;5003899;28;20034;-70
2021/08/01 13:52:46;;;;;;;33.47;21.70;;;;;;;;;;5009330;28;20083;-72
2021/08/01 13:55:14;;;;;;;36.25;22.95;;;;;;;;;;5021755;28;20510;-71
2021/08/01 13:57:41;;;;;;;32.42;21.02;;;;;;;;;;5023701;28;20060;-73
2021/08/01 14:00:09;;;;;;;30.42;20.38;;;;;;;;;;5017015;28;20045;-71
2021/08/01 14:02:35;;;;;;;;;;;;;;;;;;5019082;28;20412;-72
2021/08/01 14:05:03;;;;;;;38.97;21.30;;;;;;;;;;5011673;28;19917;-73
2021/08/01 14:07:30;;;;;;;31.63;20.88;;;;;;;;;;5000668;28;20060;-74
2021/08/01 14:09:57;;;;;;;31.05;21.25;;;;;;;;;;5019682;28;20047;-74
2021/08/01 14:12:26;;;;;;;30.95;19.65;;;;;;;;;;5019398;28;20042;-71
2021/08/01 14:14:55;;;;;;;33.03;21.33;;;;;;;;;;5022705;28;20087;-72
2021/08/01 14:17:22;;;;;;;36.80;21.55;;;;;;;;;;5019982;28;20096;-74
2021/08/01 14:19:50;;;;;;;34.70;21.80;;;;;;;;;;5021787;28;20065;-73
2021/08/01 14:22:18;;;;;;;30.73;20.77;;;;;;;;;;5022372;28;20068;-72
2021/08/01 14:24:44;;;;;;;35.28;20.80;;;;;;;;;;5007068;28;20129;-73
2021/08/01 14:27:13;;;;;;;28.33;18.45;;;;;;;;;;5011438;28;20049;-76
2021/08/01 14:29:41;;;;;;;39.50;22.02;;;;;;;;;;5013299;28;20042;-73
2021/08/01 14:32:14;;;;;;;31.00;19.92;;;;;;;;;;4979320;28;20044;-75
2021/08/01 14:34:46;;;;;;;41.33;26.10;;;;;;;;;;5014256;28;20083;-73
2021/08/01 14:37:14;;;;;;;35.08;22.02;;;;;;;;;;5021135;28;20065;-76
2021/08/01 14:39:42;;;;;;;29.27;19.67;;;;;;;;;;5022127;28;20053;-71
2021/08/01 14:42:18;;;;;;;27.63;17.98;;;;;;;;;;5022298;28;20048;-72